Time;durP1;ratioP1;P1;durP2;ratioP2;P2;SDS_P1;SDS_P2;PMS_P1;PMS_P2;Temp;Humidity;BMP_temperature;BMP_pressure;BME280_temperature;BME280_humidity;BME280_pressure;Samples;Min_cycle;Max_cycle;Signal;HPM_P1;HPM_P2
2023/12/09 00:01:47;;;;;;;349.60;27.08;;;8.50;71.10;;;3.30;100.00;95400.47;4991184;28;20212;-55
2023/12/09 00:04:15;;;;;;;33.53;13.88;;;8.50;71.10;;;3.25;100.00;95404.56;5005483;28;20033;-53
2023/12/09 00:06:49;;;;;;;38.10;16.35;;;8.50;71.50;;;3.18;100.00;95406.47;4991107;28;20032;-49
2023/12/09 00:09:21;;;;;;;35.25;15.48;;;8.50;71.20;;;3.25;100.00;95412.44;4989978;28;20148;-53
2023/12/09 00:11:55;;;;;;;39.85;16.50;;;8.50;71.20;;;3.30;100.00;95421.53;4990832;28;20057;-50
2023/12/09 00:14:24;;;;;;;38.28;16.05;;;8.40;71.20;;;3.31;100.00;95410.75;4989731;28;20026;-54
2023/12/09 00:16:53;;;;;;;61.45;17.13;;;8.40;71.30;;;3.33;100.00;95416.63;4990828;28;20068;-50
2023/12/09 00:19:19;;;;;;;38.97;16.38;;;8.50;71.40;;;3.35;100.00;95419.81;4987575;28;20028;-51
2023/12/09 00:21:50;;;;;;;40.42;16.38;;;8.40;71.40;;;3.35;100.00;95425.06;4989686;28;20030;-56
2023/12/09 00:24:19;;;;;;;48.13;17.92;;;8.50;71.50;;;3.34;100.00;95417.41;4990622;28;20025;-50
2023/12/09 00:26:58;;;;;;;38.05;16.27;;;8.50;71.50;;;3.37;100.00;95428.31;4989731;28;20026;-56
2023/12/09 00:29:37;;;;;;;36.63;15.38;;;8.50;71.50;;;3.37;100.00;95430.94;4990090;28;20037;-49
2023/12/09 00:32:15;;;;;;;37.95;16.58;;;8.50;71.50;;;3.41;100.00;95424.19;4989250;28;20671;-50
2023/12/09 00:34:43;;;;;;;36.05;16.27;;;8.50;71.60;;;3.46;100.00;95426.16;4990879;28;20116;-52
2023/12/09 00:37:15;;;;;;;39.15;16.40;;;8.50;71.70;;;3.50;100.00;95422.06;4990333;28;20113;-52
2023/12/09 00:39:51;;;;;;;35.15;15.32;;;8.60;71.80;;;3.51;100.00;95423.69;4989647;28;20033;-51
2023/12/09 00:42:22;;;;;;;37.97;15.93;;;8.60;71.70;;;3.49;100.00;95425.72;4989142;28;20053;-51
2023/12/09 00:44:55;;;;;;;135.98;20.83;;;8.60;71.70;;;3.48;100.00;95421.50;4989319;28;20132;-49
2023/12/09 00:47:24;;;;;;;33.90;15.60;;;8.60;71.60;;;3.52;100.00;95422.63;4990274;28;20125;-50
2023/12/09 00:49:58;;;;;;;52.97;14.80;;;8.60;71.60;;;3.54;100.00;95425.88;4988939;28;20041;-48
2023/12/09 00:52:27;;;;;;;35.00;15.20;;;8.60;71.70;;;3.54;100.00;95422.41;4990906;28;20037;-50
2023/12/09 00:54:56;;;;;;;38.33;15.43;;;8.70;71.60;;;3.51;100.00;95436.84;4990530;28;20034;-52
2023/12/09 00:57:27;;;;;;;32.08;14.38;;;8.70;71.60;;;3.51;100.00;95434.22;4989187;28;20017;-53
2023/12/09 00:59:58;;;;;;;36.78;15.10;;;8.70;71.50;;;3.50;100.00;95426.53;4989139;28;20033;-51
2023/12/09 01:02:33;;;;;;;33.83;14.65;;;8.70;71.50;;;3.53;100.00;95424.25;4989534;28;20054;-50
2023/12/09 01:05:05;;;;;;;31.77;13.82;;;8.70;71.40;;;3.51;100.00;95425.47;4990202;28;20030;-50
2023/12/09 01:07:39;;;;;;;42.70;15.00;;;8.70;71.40;;;3.50;100.00;95422.06;4988785;28;20049;-49
2023/12/09 01:10:06;;;;;;;37.75;15.50;;;8.70;71.40;;;3.51;100.00;95422.84;4989521;28;20562;-53
2023/12/09 01:12:35;;;;;;;33.67;14.18;;;8.70;71.40;;;3.50;100.00;95427.31;4990288;28;20033;-49
2023/12/09 01:15:02;;;;;;;34.83;15.25;;;8.70;71.30;;;3.52;100.00;95420.00;4989150;28;20025;-50
2023/12/09 01:17:31;;;;;;;60.65;15.95;;;8.70;71.30;;;3.51;100.00;95418.41;4989485;28;20022;-52
2023/12/09 01:20:07;;;;;;;260.45;19.33;;;8.80;71.40;;;3.48;100.00;95427.56;4988860;28;20104;-52
2023/12/09 01:22:36;;;;;;;58.65;14.63;;;8.80;71.30;;;3.50;100.00;95434.41;4990253;28;20057;-48
2023/12/09 01:25:07;;;;;;;40.45;15.40;;;8.70;71.20;;;3.49;100.00;95441.53;4989957;28;20500;-48
2023/12/09 01:27:36;;;;;;;42.25;14.68;;;8.70;71.20;;;3.48;100.00;95437.28;4988774;28;20037;-52
2023/12/09 01:30:04;;;;;;;38.95;15.93;;;8.70;71.20;;;3.51;100.00;95447.38;4989768;28;20025;-50
2023/12/09 01:32:33;;;;;;;49.55;17.25;;;8.70;71.30;;;3.51;100.00;95447.38;4988951;28;20396;-48
2023/12/09 01:35:03;;;;;;;35.05;13.90;;;8.70;71.40;;;3.52;100.00;95456.09;4989958;28;20033;-49
2023/12/09 01:37:30;;;;;;;29.40;13.57;;;8.70;71.40;;;3.52;100.00;95453.44;4982194;28;20494;-56
2023/12/09 01:39:58;;;;;;;27.27;12.77;;;8.80;71.40;;;3.55;100.00;95453.81;4988863;28;20388;-48
2023/12/09 01:42:27;;;;;;;24.73;13.10;;;8.80;71.50;;;3.57;100.00;95467.53;4992935;28;20175;-50
2023/12/09 01:44:54;;;;;;;29.92;13.73;;;8.80;71.40;;;3.59;100.00;95470.75;4992627;28;20474;-49
2023/12/09 01:47:29;;;;;;;32.15;14.20;;;8.80;71.40;;;3.60;100.00;95474.19;4993574;28;20032;-54
2023/12/09 01:49:58;;;;;;;33.38;15.75;;;8.80;71.40;;;3.58;100.00;95482.31;4992777;28;20037;-50
2023/12/09 01:52:31;;;;;;;30.08;14.93;;;8.80;71.40;;;3.60;100.00;95475.00;4993584;28;20037;-51
2023/12/09 01:54:59;;;;;;;30.75;14.48;;;8.80;71.40;;;3.61;100.00;95473.97;5006375;28;20029;-52
2023/12/09 01:57:27;;;;;;;36.15;15.93;;;8.80;71.40;;;3.64;100.00;95475.38;4992060;28;20489;-49
2023/12/09 01:59:54;;;;;;;33.65;15.90;;;8.80;71.40;;;3.64;100.00;95478.00;4993509;28;20064;-48
2023/12/09 02:02:23;;;;;;;39.67;16.65;;;8.80;71.40;;;3.66;100.00;95492.53;4992337;28;20462;-49
2023/12/09 02:05:10;;;;;;;35.10;16.13;;;8.80;71.50;;;3.68;100.00;95487.84;4993279;28;20519;-51
2023/12/09 02:07:38;;;;;;;37.88;16.77;;;8.80;71.60;;;3.67;100.00;95474.94;4990960;28;20041;-50
2023/12/09 02:10:07;;;;;;;31.02;13.65;;;8.80;71.50;;;3.66;100.00;95479.38;4991240;28;20046;-50
2023/12/09 02:13:28;;;;;;;34.08;15.68;;;8.80;71.40;;;3.67;100.00;95477.56;4990029;28;20037;-48
2023/12/09 02:16:19;;;;;;;36.97;16.60;;;8.90;71.50;;;3.67;100.00;95491.53;4989660;28;20028;-48
2023/12/09 02:18:48;;;;;;;33.70;15.43;;;8.90;71.60;;;3.67;100.00;95490.72;4992666;28;20025;-50
2023/12/09 02:21:21;;;;;;;40.47;16.80;;;8.90;71.50;;;3.67;100.00;95483.63;4990979;28;20103;-48
2023/12/09 02:23:47;;;;;;;40.22;16.65;;;8.90;71.50;;;3.67;100.00;95480.19;4992959;28;20064;-48
2023/12/09 02:26:29;;;;;;;48.08;17.10;;;8.90;71.50;;;3.67;100.00;95475.72;4990353;28;20040;-50
2023/12/09 02:29:07;;;;;;;40.40;16.67;;;8.90;71.50;;;3.67;100.00;95469.66;5005420;28;20644;-48
2023/12/09 02:31:38;;;;;;;43.40;17.30;;;8.90;71.50;;;3.63;100.00;95477.19;4989401;28;20038;-50
2023/12/09 02:34:18;;;;;;;38.13;18.02;;;8.90;71.40;;;3.65;100.00;95479.59;4990729;28;20025;-48
2023/12/09 02:36:49;;;;;;;44.70;19.52;;;8.90;71.40;;;3.67;100.00;95467.81;4991650;28;20108;-49
2023/12/09 02:39:21;;;;;;;44.95;16.42;;;8.90;71.50;;;3.70;100.00;95456.03;4989939;28;20036;-48
2023/12/09 02:41:51;;;;;;;205.57;21.33;;;8.90;71.50;;;3.65;100.00;95437.47;5004989;28;20042;-48
2023/12/09 02:44:21;;;;;;;55.28;15.98;;;8.90;71.40;;;3.50;100.00;95434.41;4991494;28;20491;-50
2023/12/09 02:46:56;;;;;;;45.95;17.95;;;8.80;71.20;;;3.46;100.00;95434.88;4992556;28;20030;-49
2023/12/09 02:49:26;;;;;;;50.10;17.83;;;8.70;71.10;;;3.50;100.00;95439.69;4991893;28;20049;-51
2023/12/09 02:51:52;;;;;;;50.80;18.48;;;8.70;71.20;;;3.50;100.00;95440.50;4991426;28;20029;-55
2023/12/09 02:54:26;;;;;;;46.22;17.80;;;8.70;71.30;;;3.50;100.00;95437.84;4992222;28;20022;-48
2023/12/09 02:57:00;;;;;;;45.30;17.08;;;8.60;71.50;;;3.51;100.00;95434.22;4991645;28;20037;-52
2023/12/09 02:59:28;;;;;;;46.35;18.20;;;8.70;71.50;;;3.53;100.00;95420.81;4991771;28;20037;-50
2023/12/09 03:02:31;;;;;;;42.90;17.20;;;8.60;71.60;;;3.55;100.00;95406.41;4991201;28;20026;-49
2023/12/09 03:04:59;;;;;;;44.77;16.70;;;8.70;71.80;;;3.55;100.00;95414.28;4988165;28;20057;-48
2023/12/09 03:07:26;;;;;;;35.38;16.45;;;8.60;72.50;;;3.58;100.00;95415.69;4991797;28;20570;-48
2023/12/09 03:09:52;;;;;;;43.15;17.85;;;8.70;71.80;;;3.57;100.00;95420.13;4991422;28;20049;-53
2023/12/09 03:12:18;;;;;;;44.13;18.48;;;8.70;71.70;;;3.55;100.00;95419.56;4991766;28;20046;-50
2023/12/09 03:14:43;;;;;;;40.70;18.23;;;8.70;71.80;;;3.60;100.00;95416.25;4991368;28;20038;-48
2023/12/09 03:17:10;;;;;;;44.00;18.75;;;8.70;71.80;;;3.63;100.00;95408.69;4991393;28;20499;-50
2023/12/09 03:19:36;;;;;;;38.03;16.15;;;8.70;71.80;;;3.65;100.00;95408.47;4991223;28;20026;-50
2023/12/09 03:22:03;;;;;;;38.55;16.10;;;8.80;71.90;;;3.66;100.00;95394.28;4990822;28;20184;-49
2023/12/09 03:24:29;;;;;;;82.85;16.15;;;8.80;71.80;;;3.64;100.00;95381.34;4991680;28;20041;-50
2023/12/09 03:26:55;;;;;;;73.63;26.67;;;8.80;71.80;;;3.55;100.00;95392.41;4990688;28;20071;-49
2023/12/09 03:29:22;;;;;;;50.53;16.95;;;8.80;71.60;;;3.56;100.00;95391.38;4991382;28;20037;-49
2023/12/09 03:31:51;;;;;;;45.72;17.67;;;8.80;71.60;;;3.58;100.00;95402.50;4991617;28;20550;-54
2023/12/09 03:34:17;;;;;;;41.10;17.67;;;8.80;71.70;;;3.62;100.00;95398.38;4991048;28;20042;-51
2023/12/09 03:36:43;;;;;;;37.97;15.60;;;8.70;71.60;;;3.63;100.00;95389.44;4991788;28;20024;-53
2023/12/09 03:39:09;;;;;;;41.22;15.73;;;8.80;71.70;;;3.65;100.00;95392.66;4989998;28;20033;-50
2023/12/09 03:41:36;;;;;;;39.83;15.38;;;8.80;71.70;;;3.62;100.00;95385.22;4991353;28;20543;-49
2023/12/09 03:44:02;;;;;;;35.55;15.07;;;8.80;71.70;;;3.63;100.00;95384.19;4990776;28;20392;-49
2023/12/09 03:46:29;;;;;;;37.92;15.70;;;8.80;71.60;;;3.59;100.00;95389.09;4991403;28;20029;-51
2023/12/09 03:48:54;;;;;;;42.08;16.42;;;8.80;71.50;;;3.63;100.00;95397.34;4991014;28;20026;-52
2023/12/09 03:51:20;;;;;;;38.85;14.95;;;8.80;71.50;;;3.60;100.00;95384.63;4990489;28;20037;-48
2023/12/09 03:53:46;;;;;;;35.28;16.77;;;8.80;71.50;;;3.61;100.00;95387.06;4991249;28;20030;-49
2023/12/09 03:56:23;;;;;;;39.67;14.27;;;8.80;71.60;;;3.60;100.00;95367.00;4990436;28;20034;-50
2023/12/09 03:58:50;;;;;;;86.20;15.88;;;8.80;71.50;;;3.58;100.00;95370.91;4990777;28;20049;-51
2023/12/09 04:01:16;;;;;;;32.67;13.52;;;8.80;71.50;;;3.57;100.00;95359.53;4987954;28;20033;-54
2023/12/09 04:03:42;;;;;;;39.42;15.15;;;8.80;71.40;;;3.56;100.00;95370.31;4989743;28;20400;-49
2023/12/09 04:06:08;;;;;;;79.32;16.73;;;8.70;71.40;;;3.53;100.00;95371.56;4991038;28;20392;-50
2023/12/09 04:08:34;;;;;;;36.45;13.85;;;8.70;72.10;;;3.52;100.00;95369.16;4989180;28;20022;-49
2023/12/09 04:11:00;;;;;;;38.45;14.40;;;8.70;71.40;;;3.47;100.00;95377.72;4991468;28;20029;-48
2023/12/09 04:13:27;;;;;;;40.97;14.55;;;8.70;71.40;;;3.50;100.00;95376.47;4991116;28;20026;-50
2023/12/09 04:15:53;;;;;;;41.78;14.45;;;8.70;72.20;;;3.49;100.00;95373.06;4995829;28;20029;-52
2023/12/09 04:18:19;;;;;;;31.67;13.30;;;8.70;71.50;;;3.47;100.00;95375.91;4990924;28;20086;-54
2023/12/09 04:20:44;;;;;;;95.05;15.13;;;8.60;71.50;;;3.45;100.00;95372.69;4985626;28;20030;-50
2023/12/09 04:23:10;;;;;;;33.03;14.00;;;8.60;71.50;;;3.42;100.00;95375.78;4991245;28;20431;-51
2023/12/09 04:25:36;;;;;;;34.03;14.15;;;8.60;71.40;;;3.41;100.00;95376.78;4991615;28;20044;-48
2023/12/09 04:28:02;;;;;;;72.32;15.70;;;8.60;71.50;;;3.41;100.00;95378.63;4990488;28;20512;-49
2023/12/09 04:30:28;;;;;;;50.72;14.85;;;8.60;71.50;;;3.39;100.00;95378.88;4990616;28;20484;-49
2023/12/09 04:32:54;;;;;;;37.50;14.57;;;8.60;71.50;;;3.36;100.00;95381.94;4990086;28;20040;-50
2023/12/09 04:35:20;;;;;;;125.15;16.25;;;8.60;71.40;;;3.35;100.00;95379.50;4991719;28;20108;-50
2023/12/09 04:37:46;;;;;;;136.40;20.13;;;8.50;71.30;;;3.32;100.00;95386.06;4991172;28;20064;-52
2023/12/09 04:40:12;;;;;;;39.85;15.57;;;8.50;71.30;;;3.32;100.00;95393.97;4990654;28;20107;-51
2023/12/09 04:42:40;;;;;;;40.20;16.90;;;8.50;71.90;;;3.33;100.00;95390.28;4991469;28;20013;-48
2023/12/09 04:45:08;;;;;;;55.15;19.50;;;8.50;71.60;;;3.34;100.00;95394.53;4990755;28;20095;-49
2023/12/09 04:47:34;;;;;;;97.55;22.15;;;8.50;71.70;;;3.33;100.00;95400.81;4991254;28;20425;-50
2023/12/09 04:50:01;;;;;;;48.65;16.88;;;8.50;71.70;;;3.33;100.00;95387.66;4989959;28;20041;-51
2023/12/09 04:52:26;;;;;;;78.80;20.83;;;8.40;72.50;;;3.31;100.00;95394.97;4991043;28;20057;-49
2023/12/09 04:54:52;;;;;;;70.20;21.27;;;8.40;71.70;;;3.32;100.00;95403.66;4991365;28;20444;-48
2023/12/09 04:57:18;;;;;;;58.08;21.00;;;8.40;71.60;;;3.31;100.00;95399.44;4990310;28;20030;-50
2023/12/09 04:59:44;;;;;;;58.58;20.75;;;8.40;71.70;;;3.30;100.00;95406.53;4991138;28;20021;-51
2023/12/09 05:02:10;;;;;;;119.93;22.30;;;8.30;71.70;;;3.29;100.00;95402.31;4984282;28;20401;-50
2023/12/09 05:04:36;;;;;;;78.75;22.60;;;8.40;71.90;;;3.29;100.00;95401.47;4984403;28;20021;-50
2023/12/09 05:07:03;;;;;;;131.35;23.65;;;8.40;71.90;;;3.30;100.00;95403.91;4990809;28;20397;-51
2023/12/09 05:09:29;;;;;;;143.90;23.20;;;8.40;72.00;;;3.30;100.00;95403.91;4990213;28;20128;-50
2023/12/09 05:11:54;;;;;;;78.90;20.60;;;8.40;72.00;;;3.32;100.00;95408.94;4991089;28;20105;-48
2023/12/09 05:14:20;;;;;;;56.28;19.25;;;8.40;72.00;;;3.31;100.00;95413.38;4989858;28;20460;-53
2023/12/09 05:16:46;;;;;;;192.32;23.75;;;8.40;71.90;;;3.30;100.00;95406.53;4997452;28;20473;-50
2023/12/09 05:19:13;;;;;;;72.97;20.42;;;8.40;72.00;;;3.30;100.00;95403.91;4994694;28;20040;-50
2023/12/09 05:21:38;;;;;;;73.47;21.25;;;8.40;72.00;;;3.30;100.00;95403.09;4993828;28;20455;-48
2023/12/09 05:24:05;;;;;;;102.45;23.63;;;8.40;72.00;;;3.32;100.00;95419.47;4994900;28;20124;-50
2023/12/09 05:26:31;;;;;;;96.03;21.88;;;8.40;72.00;;;3.30;100.00;95416.25;4993903;28;20026;-48
2023/12/09 05:28:57;;;;;;;64.40;20.30;;;8.40;72.00;;;3.34;100.00;95410.31;4994760;28;20026;-49
2023/12/09 05:31:24;;;;;;;72.68;20.77;;;8.40;72.00;;;3.35;100.00;95416.38;4995093;28;20492;-49
2023/12/09 05:33:50;;;;;;;130.88;23.85;;;8.40;72.00;;;3.34;100.00;95415.59;4990360;28;20140;-50
2023/12/09 05:36:16;;;;;;;58.95;19.90;;;8.40;72.10;;;3.33;100.00;95421.88;4994512;28;20061;-48
2023/12/09 05:38:43;;;;;;;56.67;19.48;;;8.40;72.10;;;3.35;100.00;95411.91;4993328;28;20655;-48
2023/12/09 05:41:10;;;;;;;86.70;19.48;;;8.40;72.30;;;3.34;100.00;95417.41;4994655;28;20472;-48
2023/12/09 05:43:38;;;;;;;49.65;18.95;;;8.40;72.30;;;3.31;100.00;95408.13;4994663;28;20028;-48
2023/12/09 05:46:05;;;;;;;45.15;17.83;;;8.40;72.20;;;3.32;100.00;95401.84;4993283;28;20084;-48
2023/12/09 05:48:34;;;;;;;53.00;18.13;;;8.40;72.20;;;3.34;100.00;95407.69;4994369;28;20030;-52
2023/12/09 05:51:04;;;;;;;52.05;17.38;;;8.40;72.30;;;3.34;100.00;95412.16;4993152;28;20048;-48
2023/12/09 05:53:29;;;;;;;52.28;17.48;;;8.40;72.20;;;3.35;100.00;95401.38;4987208;28;20026;-48
2023/12/09 05:55:55;;;;;;;53.83;17.70;;;8.40;72.20;;;3.36;100.00;95391.69;4993261;28;20025;-49
2023/12/09 05:58:21;;;;;;;48.17;16.48;;;8.40;72.20;;;3.34;100.00;95383.19;4994223;28;20040;-50
2023/12/09 06:00:47;;;;;;;60.33;18.75;;;8.40;72.10;;;3.34;100.00;95393.72;4992184;28;20111;-51
2023/12/09 06:03:13;;;;;;;48.15;18.10;;;8.50;72.10;;;3.33;100.00;95394.75;4993213;28;20041;-54
2023/12/09 06:05:39;;;;;;;52.17;18.27;;;8.40;72.10;;;3.34;100.00;95386.63;4994040;28;20423;-48
2023/12/09 06:08:04;;;;;;;55.97;18.33;;;8.50;72.20;;;3.34;100.00;95376.09;4993418;28;20029;-53
2023/12/09 06:10:30;;;;;;;52.20;18.35;;;8.50;72.20;;;3.37;100.00;95372.22;4994015;28;20061;-49
2023/12/09 06:12:56;;;;;;;53.95;17.20;;;8.50;72.20;;;3.37;100.00;95370.38;4994172;28;20061;-48
2023/12/09 06:15:22;;;;;;;51.33;17.63;;;8.50;72.30;;;3.39;100.00;95359.63;4993066;28;20033;-51
2023/12/09 06:17:47;;;;;;;45.40;17.73;;;8.50;72.20;;;3.42;100.00;95357.34;5011287;28;20036;-52
2023/12/09 06:20:13;;;;;;;47.83;17.15;;;8.50;72.30;;;3.39;100.00;95349.91;4992717;28;20039;-51
2023/12/09 06:22:39;;;;;;;44.33;16.73;;;8.50;72.20;;;3.40;100.00;95337.53;4993996;28;20058;-49
2023/12/09 06:25:07;;;;;;;47.63;17.02;;;8.50;72.20;;;3.38;100.00;95350.91;4993660;28;20054;-49
2023/12/09 06:27:35;;;;;;;39.88;14.88;;;8.50;72.30;;;3.35;100.00;95351.34;4992592;28;20403;-52
2023/12/09 06:30:01;;;;;;;41.55;15.85;;;8.50;72.30;;;3.37;100.00;95348.50;4993693;28;20021;-49
2023/12/09 06:32:27;;;;;;;43.40;15.52;;;8.50;72.30;;;3.38;100.00;95353.53;4991510;28;20129;-50
2023/12/09 06:34:53;;;;;;;40.15;15.15;;;8.50;72.40;;;3.38;100.00;95350.09;4992962;28;20112;-48
2023/12/09 06:37:18;;;;;;;41.63;15.18;;;8.50;72.40;;;3.40;100.00;95348.84;4988840;28;20014;-49
2023/12/09 06:39:44;;;;;;;38.40;15.43;;;8.50;72.40;;;3.45;100.00;95356.91;4989664;28;20080;-49
2023/12/09 06:42:10;;;;;;;38.75;14.45;;;8.50;72.50;;;3.45;100.00;95356.91;4989989;28;20060;-50
2023/12/09 06:44:36;;;;;;;36.88;14.25;;;8.50;72.50;;;3.39;100.00;95349.09;5005420;28;20026;-50
2023/12/09 06:47:02;;;;;;;37.55;14.20;;;8.50;72.50;;;3.39;100.00;95349.91;4993218;28;20482;-48
2023/12/09 06:49:27;;;;;;;31.23;13.52;;;8.50;72.40;;;3.41;100.00;95342.56;4992068;28;20252;-48
2023/12/09 06:51:54;;;;;;;36.97;14.18;;;8.50;72.40;;;3.43;100.00;95351.03;5007754;28;20060;-48
2023/12/09 06:54:20;;;;;;;35.10;15.50;;;8.50;72.40;;;3.45;100.00;95351.63;4993363;28;20499;-48
2023/12/09 06:56:45;;;;;;;38.45;14.88;;;8.50;72.40;;;3.43;100.00;95347.63;4983130;28;20022;-48
2023/12/09 06:59:11;;;;;;;38.83;14.95;;;8.50;72.50;;;3.48;100.00;95353.03;4990810;28;20400;-48
2023/12/09 07:01:37;;;;;;;36.00;15.07;;;8.50;72.50;;;3.51;100.00;95349.09;4986730;28;20021;-49
2023/12/09 07:04:03;;;;;;;39.22;14.18;;;8.50;72.50;;;3.53;100.00;95347.06;4991087;28;20022;-48
2023/12/09 07:06:30;;;;;;;52.97;15.60;;;8.60;72.60;;;3.52;100.00;95348.09;4990293;28;20492;-54
2023/12/09 07:08:59;;;;;;;32.38;13.95;;;8.60;72.60;;;3.55;100.00;95340.53;4991588;28;20591;-48
2023/12/09 07:11:25;;;;;;;38.33;14.95;;;8.60;73.30;;;3.54;100.00;95333.69;4992957;28;20056;-50
2023/12/09 07:13:51;;;;;;;42.55;16.73;;;8.60;72.50;;;3.47;100.00;95325.84;4992614;28;20022;-54
2023/12/09 07:16:18;;;;;;;42.22;15.00;;;8.70;72.50;;;3.53;100.00;95336.53;4991004;28;20030;-52
2023/12/09 07:18:46;;;;;;;42.33;15.63;;;8.60;72.40;;;3.57;100.00;95340.31;4991587;28;20028;-49
2023/12/09 07:21:16;;;;;;;37.20;15.40;;;8.70;72.40;;;3.59;100.00;95348.78;4991629;28;20029;-48
2023/12/09 07:23:45;;;;;;;41.13;14.10;;;8.70;72.40;;;3.59;100.00;95352.22;4992858;28;20036;-48
2023/12/09 07:26:12;;;;;;;36.55;14.85;;;8.70;72.40;;;3.56;100.00;95339.50;4991645;28;20555;-49
2023/12/09 07:28:38;;;;;;;88.22;15.68;;;8.70;72.30;;;3.56;100.00;95346.59;4992031;28;20030;-51
2023/12/09 07:31:04;;;;;;;38.53;13.98;;;8.70;72.30;;;3.55;100.00;95351.09;4992799;28;20021;-49
2023/12/09 07:33:29;;;;;;;36.10;14.30;;;8.70;72.20;;;3.55;100.00;95351.09;4992001;28;20433;-49
2023/12/09 07:35:56;;;;;;;45.53;16.92;;;8.70;72.10;;;3.51;100.00;95347.31;4992798;28;20113;-49
2023/12/09 07:38:22;;;;;;;40.25;16.23;;;8.70;72.10;;;3.54;100.00;95356.56;4990618;28;20034;-49
2023/12/09 07:40:51;;;;;;;45.80;16.08;;;8.70;72.10;;;3.55;100.00;95366.09;4992655;28;20026;-48
2023/12/09 07:43:16;;;;;;;40.00;15.35;;;8.70;72.10;;;3.55;100.00;95360.81;4992036;28;20021;-48
2023/12/09 07:45:42;;;;;;;42.42;15.90;;;8.70;72.10;;;3.54;100.00;95364.47;4990620;28;20092;-48
2023/12/09 07:48:08;;;;;;;45.08;15.82;;;8.70;72.10;;;3.53;100.00;95362.88;4991054;28;20026;-48
2023/12/09 07:50:35;;;;;;;42.42;15.10;;;8.70;72.00;;;3.54;100.00;95365.28;4991230;28;20018;-49
2023/12/09 07:53:02;;;;;;;43.72;17.38;;;8.70;72.00;;;3.55;100.00;95353.72;4992293;28;20022;-48
2023/12/09 07:55:28;;;;;;;40.60;15.73;;;8.80;72.10;;;3.53;100.00;95347.84;4992053;28;20037;-51
2023/12/09 07:57:55;;;;;;;38.85;16.20;;;8.80;72.10;;;3.54;100.00;95353.94;4987670;28;20021;-49
2023/12/09 08:00:22;;;;;;;35.67;14.77;;;8.80;72.00;;;3.56;100.00;95347.41;4991522;28;20523;-51
2023/12/09 08:02:48;;;;;;;59.42;16.70;;;8.80;71.90;;;3.57;100.00;95338.47;4990243;28;20045;-49
2023/12/09 08:05:16;;;;;;;42.67;14.75;;;8.80;71.90;;;3.58;100.00;95334.81;4991942;28;20029;-49
2023/12/09 08:07:42;;;;;;;39.83;15.05;;;8.90;71.90;;;3.59;100.00;95336.41;4990305;28;20357;-49
2023/12/09 08:10:09;;;;;;;39.92;15.23;;;8.90;71.90;;;3.52;100.00;95333.09;4983130;28;20049;-53
2023/12/09 08:12:34;;;;;;;37.72;14.93;;;8.80;71.80;;;3.54;100.00;95325.78;4988817;28;20021;-50
2023/12/09 08:15:00;;;;;;;36.35;13.60;;;8.80;71.80;;;3.59;100.00;95320.63;4990680;28;20029;-49
2023/12/09 08:17:26;;;;;;;41.22;14.98;;;8.80;71.80;;;3.61;100.00;95320.41;4995218;28;20014;-49
2023/12/09 08:19:52;;;;;;;30.27;13.48;;;8.90;71.90;;;3.61;100.00;95329.09;4991643;28;20121;-56
2023/12/09 08:22:18;;;;;;;41.10;15.13;;;8.90;71.90;;;3.61;100.00;95330.94;4990992;28;20029;-50
2023/12/09 08:24:43;;;;;;;43.08;14.50;;;8.90;71.80;;;3.60;100.00;95321.41;4991365;28;20022;-50
2023/12/09 08:27:10;;;;;;;35.05;14.32;;;9.00;71.70;;;3.59;100.00;95325.88;4990002;28;20366;-49
2023/12/09 08:29:36;;;;;;;32.30;13.65;;;9.00;71.50;;;3.61;100.00;95323.84;4991468;28;20056;-49
2023/12/09 08:32:03;;;;;;;35.58;14.15;;;9.10;71.40;;;3.68;100.00;95313.19;4990643;28;20039;-51
2023/12/09 08:34:29;;;;;;;28.67;13.07;;;9.20;71.30;;;3.78;100.00;95323.16;4991565;28;20083;-49
2023/12/09 08:36:55;;;;;;;33.33;13.90;;;9.20;71.30;;;3.81;100.00;95320.88;4991518;28;20026;-49
2023/12/09 08:39:23;;;;;;;30.83;12.98;;;9.30;71.30;;;3.82;100.00;95311.94;4990059;28;20034;-49
2023/12/09 08:41:49;;;;;;;33.55;14.10;;;9.40;71.30;;;3.90;100.00;95311.59;4986562;28;20121;-51
2023/12/09 08:44:14;;;;;;;33.95;12.77;;;9.50;71.30;;;3.97;100.00;95314.13;4990851;28;20116;-49
2023/12/09 08:46:40;;;;;;;29.00;12.63;;;9.70;71.30;;;4.07;100.00;95313.53;4991468;28;20040;-49
2023/12/09 08:49:06;;;;;;;32.00;13.27;;;9.80;71.20;;;4.10;100.00;95321.00;4991350;28;20021;-57
2023/12/09 08:51:44;;;;;;;30.55;12.40;;;9.90;71.20;;;4.07;100.00;95326.72;4983941;28;20025;-51
2023/12/09 08:54:10;;;;;;;24.92;11.82;;;10.00;71.10;;;4.13;100.00;95318.69;4990953;28;20030;-51
2023/12/09 08:56:37;;;;;;;29.52;12.27;;;10.00;70.90;;;4.26;100.00;95314.22;4990676;28;20477;-49
2023/12/09 08:59:07;;;;;;;27.13;12.50;;;10.00;70.90;;;4.31;100.00;95315.13;4991100;28;20578;-51
2023/12/09 09:01:36;;;;;;;23.23;11.63;;;10.10;71.00;;;4.42;100.00;95318.81;4991345;28;20021;-49
2023/12/09 09:04:02;;;;;;;20.58;10.48;;;10.20;70.90;;;4.50;100.00;95315.78;4982447;28;20431;-49
2023/12/09 09:06:30;;;;;;;17.17;10.07;;;10.20;70.80;;;4.59;100.00;95324.16;4990871;28;20053;-54
2023/12/09 09:08:55;;;;;;;15.30;9.93;;;10.30;70.80;;;4.63;100.00;95320.00;4989601;28;20034;-49
2023/12/09 09:11:21;;;;;;;16.10;9.23;;;10.40;70.70;;;4.69;100.00;95315.63;4991579;28;20052;-53
2023/12/09 09:13:47;;;;;;;13.52;8.32;;;10.40;70.60;;;4.63;100.00;95322.63;4991169;28;20025;-51
2023/12/09 09:16:16;;;;;;;13.15;8.50;;;10.40;70.40;;;4.69;100.00;95315.63;4990208;28;20030;-53
2023/12/09 09:18:42;;;;;;;12.52;8.20;;;10.40;70.20;;;4.72;100.00;95321.25;4993275;28;20025;-53
2023/12/09 09:21:09;;;;;;;13.30;7.82;;;10.40;70.20;;;4.78;100.00;95308.94;4989442;28;20021;-56
2023/12/09 09:23:35;;;;;;;12.77;7.90;;;10.40;70.20;;;4.83;100.00;95306.44;4991048;28;20030;-51
2023/12/09 09:26:02;;;;;;;11.50;7.15;;;10.50;70.20;;;4.78;100.00;95325.59;4989715;28;20506;-49
2023/12/09 09:28:28;;;;;;;11.77;6.95;;;10.50;70.00;;;4.80;100.00;95330.66;4990706;28;20067;-51
2023/12/09 09:30:54;;;;;;;11.52;7.55;;;10.50;69.90;;;4.86;100.00;95325.22;4990953;28;20396;-50
2023/12/09 09:33:20;;;;;;;10.55;7.38;;;10.50;69.80;;;4.92;100.00;95323.50;4989707;28;20022;-55
2023/12/09 09:35:48;;;;;;;10.55;7.50;;;10.50;69.80;;;4.93;100.00;95327.72;4990600;28;20022;-51
2023/12/09 09:38:14;;;;;;;14.18;7.93;;;10.50;69.70;;;4.92;100.00;95328.78;4989807;28;20037;-50
2023/12/09 09:40:40;;;;;;;11.32;7.80;;;10.60;69.60;;;4.95;100.00;95330.13;4990734;28;20034;-54
2023/12/09 09:43:23;;;;;;;11.80;7.50;;;10.70;69.60;;;5.06;100.00;95316.09;4990669;28;20045;-51
2023/12/09 09:45:56;;;;;;;9.75;6.88;;;10.80;69.50;;;5.12;100.00;95309.06;4989716;28;20038;-49
2023/12/09 09:48:26;;;;;;;10.18;7.10;;;10.80;69.50;;;5.17;100.00;95293.28;4990472;28;20049;-53
2023/12/09 09:50:56;;;;;;;11.43;7.70;;;11.00;69.30;;;5.24;100.00;95296.59;4989630;28;20021;-51
2023/12/09 09:53:41;;;;;;;10.18;7.38;;;11.00;69.10;;;5.27;100.00;95296.94;4990748;28;20022;-49
2023/12/09 09:56:09;;;;;;;9.88;7.10;;;11.10;68.80;;;5.27;100.00;95285.56;4988462;28;20358;-53
2023/12/09 09:58:36;;;;;;;10.77;6.78;;;11.20;68.70;;;5.34;100.00;95284.38;4990307;28;20038;-53
2023/12/09 10:01:05;;;;;;;10.75;6.75;;;11.20;68.50;;;5.36;100.00;95275.41;4990571;28;20040;-59
2023/12/09 10:03:31;;;;;;;9.65;6.80;;;11.20;68.40;;;5.41;100.00;95275.50;5003275;28;20029;-53
2023/12/09 10:05:59;;;;;;;10.38;7.00;;;11.20;68.40;;;5.36;100.00;95268.28;4994328;28;20040;-52
2023/12/09 10:08:25;;;;;;;10.48;6.90;;;11.20;68.10;;;5.38;100.00;95265.41;4991802;28;20028;-53
2023/12/09 10:10:51;;;;;;;10.63;6.88;;;11.10;68.10;;;5.42;100.00;95256.78;4994058;28;20037;-53
2023/12/09 10:13:17;;;;;;;11.45;7.40;;;11.20;68.10;;;5.42;100.00;95250.66;4994525;28;20495;-50
2023/12/09 10:15:43;;;;;;;10.35;6.80;;;11.20;68.10;;;5.40;100.00;95242.19;4992858;28;20036;-52
2023/12/09 10:18:13;;;;;;;8.73;6.65;;;11.20;68.00;;;5.35;100.00;95224.41;5000461;28;20022;-52